createdAt,value
2023-03-06T00:00:38.549Z,78.97
2023-03-06T00:03:07.339Z,78.50
2023-03-06T00:05:34.643Z,78.35
2023-03-06T00:08:01.906Z,78.34
2023-03-06T00:10:30.648Z,78.62
2023-03-06T00:12:58.732Z,78.35
2023-03-06T00:15:26.715Z,78.24
2023-03-06T00:17:54.149Z,77.84
2023-03-06T00:20:23.036Z,78.78
2023-03-06T00:22:50.702Z,78.30
2023-03-06T00:25:18.838Z,78.31
2023-03-06T00:27:46.732Z,78.08
2023-03-06T00:30:15.514Z,78.07
2023-03-06T00:32:42.771Z,77.93
2023-03-06T00:35:10.559Z,78.10
2023-03-06T00:37:39.271Z,78.09
2023-03-06T00:40:07.159Z,77.61
2023-03-06T00:42:34.469Z,77.69
2023-03-06T00:45:01.808Z,77.69
2023-03-06T00:47:29.419Z,77.61
2023-03-06T00:49:56.751Z,77.04
2023-03-06T00:52:24.022Z,77.69
2023-03-06T00:54:52.749Z,77.66
2023-03-06T00:57:20.121Z,77.48
2023-03-06T00:59:47.398Z,77.30
2023-03-06T01:02:14.995Z,77.36
2023-03-06T01:04:42.389Z,76.82
2023-03-06T01:07:09.669Z,76.81
2023-03-06T01:09:36.924Z,77.79
2023-03-06T01:12:05.684Z,77.35
2023-03-06T01:14:32.964Z,77.29
2023-03-06T01:17:00.530Z,77.33
2023-03-06T01:19:27.799Z,77.56
2023-03-06T01:21:55.099Z,76.38
2023-03-06T01:24:23.920Z,77.20
2023-03-06T01:26:51.179Z,76.98
2023-03-06T01:29:21.112Z,77.30
2023-03-06T01:31:48.409Z,77.37
2023-03-06T01:34:15.670Z,77.45
2023-03-06T01:36:42.945Z,78.61
2023-03-06T01:39:10.268Z,77.72
2023-03-06T01:41:37.786Z,77.63
2023-03-06T01:44:05.165Z,77.14
2023-03-06T01:46:41.880Z,77.46
2023-03-06T01:49:16.014Z,77.16
2023-03-06T01:51:46.169Z,77.13
2023-03-06T01:54:16.233Z,77.23
2023-03-06T01:56:45.136Z,77.01
2023-03-06T01:59:12.709Z,78.01
2023-03-06T02:01:42.454Z,77.86
2023-03-06T02:04:09.936Z,77.61
2023-03-06T02:06:38.963Z,78.69
2023-03-06T02:09:06.997Z,78.13
2023-03-06T02:11:34.552Z,77.91
2023-03-06T02:14:01.967Z,78.16
2023-03-06T02:16:30.593Z,78.03
2023-03-06T02:18:59.818Z,77.73
2023-03-06T02:21:32.402Z,78.58
2023-03-06T02:24:17.619Z,78.49
2023-03-06T02:26:47.405Z,78.04
2023-03-06T02:29:15.653Z,78.63
2023-03-06T02:31:42.918Z,78.20
2023-03-06T02:34:34.553Z,78.00
2023-03-06T02:37:03.812Z,77.73
2023-03-06T02:39:34.442Z,78.00
2023-03-06T02:42:03.019Z,78.23
2023-03-06T02:44:31.302Z,78.74
2023-03-06T02:46:58.545Z,79.11
2023-03-06T02:49:26.562Z,78.02
2023-03-06T02:51:53.956Z,78.02
2023-03-06T02:54:21.248Z,78.14
2023-03-06T02:56:48.594Z,78.93
2023-03-06T02:59:17.201Z,77.67
2023-03-06T03:01:44.480Z,77.42
2023-03-06T03:04:11.866Z,77.65
2023-03-06T03:06:39.174Z,78.15
2023-03-06T03:09:07.305Z,77.76
2023-03-06T03:11:34.596Z,76.91
2023-03-06T03:14:01.843Z,78.17
2023-03-06T03:16:30.492Z,78.16
2023-03-06T03:18:57.729Z,78.76
2023-03-06T03:21:25.018Z,78.39
2023-03-06T03:23:52.273Z,78.31
2023-03-06T03:26:20.813Z,78.42
2023-03-06T03:28:48.102Z,78.57
2023-03-06T03:31:15.496Z,78.58
2023-03-06T03:33:44.119Z,78.56
2023-03-06T03:36:11.400Z,78.82
2023-03-06T03:38:38.673Z,79.22
2023-03-06T03:41:06.277Z,78.76
2023-03-06T03:43:33.546Z,79.36
2023-03-06T03:46:00.848Z,79.47
2023-03-06T03:48:28.250Z,79.66
2023-03-06T03:51:02.966Z,79.57
2023-03-06T03:53:30.215Z,80.01
2023-03-06T03:55:57.457Z,79.37
2023-03-06T03:58:24.711Z,78.42
2023-03-06T04:00:52.021Z,79.20
2023-03-06T04:03:19.556Z,79.48
2023-03-06T04:05:46.863Z,79.31
2023-03-06T04:08:15.455Z,79.78
2023-03-06T04:10:42.691Z,78.54
2023-03-06T04:13:10.321Z,79.21
2023-03-06T04:15:37.879Z,78.65
2023-03-06T04:18:05.317Z,78.86
2023-03-06T04:20:32.601Z,79.12
2023-03-06T04:22:59.854Z,78.83
2023-03-06T04:25:28.423Z,78.78
2023-03-06T04:27:55.723Z,78.86
2023-03-06T04:30:24.625Z,78.37
2023-03-06T04:32:51.883Z,77.64
2023-03-06T04:35:19.324Z,78.48
2023-03-06T04:37:46.578Z,77.87
2023-03-06T04:40:17.963Z,78.01
2023-03-06T04:42:46.635Z,77.56
2023-03-06T04:45:14.009Z,77.91
2023-03-06T04:47:41.285Z,78.62
2023-03-06T04:50:09.576Z,77.46
2023-03-06T04:52:37.042Z,77.42
2023-03-06T04:55:08.581Z,77.43
2023-03-06T04:57:35.966Z,78.38
2023-03-06T05:00:05.973Z,77.23
2023-03-06T05:02:34.221Z,77.72
2023-03-06T05:05:01.622Z,77.58
2023-03-06T05:07:29.069Z,77.58
2023-03-06T05:09:56.653Z,77.14
2023-03-06T05:12:23.905Z,77.15
2023-03-06T05:14:51.171Z,77.42
2023-03-06T05:17:19.759Z,76.78
2023-03-06T05:19:47.009Z,77.10
2023-03-06T05:22:14.279Z,77.39
2023-03-06T05:24:41.690Z,76.97
2023-03-06T05:27:08.949Z,77.49
2023-03-06T05:29:36.264Z,76.99
2023-03-06T05:32:03.662Z,76.66
2023-03-06T05:34:32.365Z,76.74
2023-03-06T05:37:01.704Z,77.22
2023-03-06T05:39:29.001Z,77.49
2023-03-06T05:41:56.291Z,77.61
2023-03-06T05:44:23.899Z,77.70
2023-03-06T05:46:51.529Z,77.38
2023-03-06T05:49:18.783Z,77.72
2023-03-06T05:51:47.361Z,78.02
2023-03-06T05:54:14.614Z,77.36
2023-03-06T05:56:42.956Z,77.33
2023-03-06T05:59:10.256Z,76.75
2023-03-06T06:01:37.529Z,76.70
2023-03-06T06:04:04.899Z,77.06
2023-03-06T06:06:32.181Z,76.88
2023-03-06T06:09:00.818Z,76.66
2023-03-06T06:11:28.095Z,76.40
2023-03-06T06:13:55.375Z,76.48
2023-03-06T06:16:22.766Z,76.19
2023-03-06T06:18:50.041Z,75.96
2023-03-06T06:21:17.294Z,76.15
2023-03-06T06:23:44.630Z,75.69
2023-03-06T06:26:13.266Z,75.26
2023-03-06T06:28:40.543Z,74.81
2023-03-06T06:31:08.505Z,74.65
2023-03-06T06:33:36.197Z,74.80
2023-03-06T06:36:03.547Z,74.98
2023-03-06T06:38:30.812Z,74.56
2023-03-06T06:41:27.168Z,74.29
2023-03-06T06:43:46.643Z,73.55
2023-03-06T06:46:41.905Z,72.77
2023-03-06T06:49:02.911Z,72.87
2023-03-06T06:51:31.396Z,72.74
2023-03-06T06:53:58.685Z,72.12
2023-03-06T06:56:26.057Z,72.45
2023-03-06T06:58:57.423Z,72.46
2023-03-06T07:01:29.056Z,73.25
2023-03-06T07:03:56.654Z,72.30
2023-03-06T07:06:23.954Z,72.65
2023-03-06T07:08:51.256Z,72.66
2023-03-06T07:11:19.223Z,71.93
2023-03-06T07:13:47.091Z,71.76
2023-03-06T07:16:17.230Z,71.59
2023-03-06T07:18:45.273Z,70.87
2023-03-06T07:21:12.758Z,70.65
2023-03-06T07:23:40.066Z,70.48
2023-03-06T07:26:07.480Z,70.29
2023-03-06T07:28:49.828Z,70.76
2023-03-06T07:31:22.069Z,70.32
2023-03-06T07:33:49.388Z,70.28
2023-03-06T07:36:16.961Z,70.90
2023-03-06T07:38:44.226Z,70.40
2023-03-06T07:41:13.472Z,68.98
2023-03-06T07:43:41.198Z,69.42
2023-03-06T07:46:08.822Z,69.24
2023-03-06T07:48:37.968Z,68.66
2023-03-06T07:51:06.383Z,69.72
2023-03-06T07:53:34.281Z,68.29
2023-03-06T07:56:04.651Z,68.39
2023-03-06T07:58:31.980Z,67.63
2023-03-06T08:01:03.503Z,67.43
2023-03-06T08:03:30.765Z,67.47
2023-03-06T08:06:06.640Z,67.12
2023-03-06T08:08:34.388Z,67.05
2023-03-06T08:11:01.650Z,67.10
2023-03-06T08:13:28.923Z,66.87
2023-03-06T08:15:56.649Z,66.49
2023-03-06T08:18:23.976Z,66.09
2023-03-06T08:20:51.230Z,65.02
2023-03-06T08:23:19.813Z,65.79
2023-03-06T08:25:47.078Z,65.96
2023-03-06T08:28:14.375Z,65.10
2023-03-06T08:30:42.550Z,64.21
2023-03-06T08:33:09.882Z,65.08
2023-03-06T08:35:37.234Z,65.11
2023-03-06T08:38:04.535Z,64.78
2023-03-06T08:40:33.110Z,64.02
2023-03-06T08:43:00.393Z,63.37
2023-03-06T08:45:27.696Z,64.41
2023-03-06T08:47:55.009Z,63.92
2023-03-06T08:50:22.282Z,62.74
2023-03-06T08:52:49.606Z,64.12
2023-03-06T08:55:17.015Z,63.87
2023-03-06T08:57:46.277Z,64.55
2023-03-06T09:00:14.314Z,63.85
2023-03-06T09:02:41.728Z,64.17
2023-03-06T09:05:09.597Z,63.87
2023-03-06T09:07:36.915Z,64.32
2023-03-06T09:10:04.416Z,65.51
2023-03-06T09:12:37.372Z,65.61
2023-03-06T09:15:16.055Z,65.69
2023-03-06T09:17:43.363Z,65.16
2023-03-06T09:20:13.172Z,65.49
2023-03-06T09:22:42.321Z,66.13
2023-03-06T09:25:10.476Z,66.09
2023-03-06T09:27:37.825Z,65.10
2023-03-06T09:30:05.582Z,65.08
2023-03-06T09:32:34.220Z,65.51
2023-03-06T09:35:01.768Z,64.14
2023-03-06T09:37:29.051Z,63.78
2023-03-06T09:39:56.341Z,64.15
2023-03-06T09:42:24.201Z,63.67
2023-03-06T09:44:54.703Z,63.81
2023-03-06T09:47:36.927Z,63.70
2023-03-06T09:50:11.119Z,62.47
2023-03-06T09:52:43.420Z,62.16
2023-03-06T09:55:12.558Z,62.14
2023-03-06T09:57:42.977Z,60.95
2023-03-06T10:00:14.543Z,61.49
2023-03-06T10:02:43.594Z,60.60
2023-03-06T10:05:14.752Z,59.65
2023-03-06T10:07:45.396Z,60.49
2023-03-06T10:10:17.764Z,61.15
2023-03-06T10:12:48.719Z,60.33
2023-03-06T10:15:18.645Z,60.64
2023-03-06T10:17:46.150Z,61.07
2023-03-06T10:20:19.547Z,61.15
2023-03-06T10:23:00.840Z,60.40
2023-03-06T10:25:32.661Z,60.68
2023-03-06T10:28:04.157Z,60.95
2023-03-06T10:30:39.578Z,61.36
2023-03-06T10:33:10.165Z,62.81
2023-03-06T10:35:46.193Z,62.96
2023-03-06T10:38:16.728Z,63.34
2023-03-06T10:40:47.263Z,63.26
2023-03-06T10:43:14.733Z,63.74
2023-03-06T10:45:49.445Z,63.56
2023-03-06T10:48:19.734Z,64.40
2023-03-06T10:50:48.598Z,64.28
2023-03-06T10:53:23.456Z,63.77
2023-03-06T10:55:55.646Z,63.60
2023-03-06T10:58:24.956Z,63.99
2023-03-06T11:01:01.234Z,63.87
2023-03-06T11:03:28.562Z,62.83
2023-03-06T11:05:59.302Z,63.15
2023-03-06T11:08:26.743Z,64.19
2023-03-06T11:10:58.453Z,63.06
2023-03-06T11:13:27.284Z,62.35
2023-03-06T11:16:02.974Z,63.43
2023-03-06T11:18:34.909Z,64.58
2023-03-06T11:21:07.112Z,64.54
2023-03-06T11:23:38.173Z,65.58
2023-03-06T11:26:10.710Z,65.90
2023-03-06T11:28:40.286Z,66.79
2023-03-06T11:31:11.229Z,67.48
2023-03-06T11:33:41.887Z,69.69
2023-03-06T11:36:14.226Z,71.48
2023-03-06T11:38:45.039Z,71.51
2023-03-06T11:41:16.721Z,73.57
2023-03-06T11:43:49.576Z,74.45
2023-03-06T11:46:21.474Z,75.24
2023-03-06T11:48:52.809Z,75.56
2023-03-06T11:51:22.815Z,76.51
2023-03-06T11:53:50.090Z,77.10
2023-03-06T11:56:25.877Z,77.13
2023-03-06T11:58:57.296Z,77.77
2023-03-06T12:01:27.965Z,77.84
2023-03-06T12:04:13.011Z,76.85
2023-03-06T12:06:48.144Z,74.82
2023-03-06T12:09:24.158Z,73.70
2023-03-06T12:12:00.665Z,72.86
2023-03-06T12:14:37.972Z,73.33
2023-03-06T12:17:13.390Z,71.07
2023-03-06T12:19:55.420Z,72.42
2023-03-06T12:22:32.308Z,71.87
2023-03-06T12:25:07.517Z,71.33
2023-03-06T12:27:39.190Z,70.78
2023-03-06T12:30:17.548Z,70.60
2023-03-06T12:32:48.963Z,70.59
2023-03-06T12:35:23.370Z,69.95
2023-03-06T12:37:58.869Z,69.94
2023-03-06T12:40:44.189Z,70.40
2023-03-06T12:43:27.540Z,69.77
2023-03-06T12:45:57.708Z,73.06
2023-03-06T12:48:27.652Z,74.01
2023-03-06T12:50:55.152Z,73.04
2023-03-06T12:53:27.223Z,72.41
2023-03-06T12:55:55.699Z,71.81
2023-03-06T12:58:35.567Z,72.98
2023-03-06T13:01:10.474Z,75.67
2023-03-06T13:03:49.417Z,74.89
2023-03-06T13:06:34.115Z,75.33
2023-03-06T13:09:12.068Z,75.10
2023-03-06T13:11:54.262Z,74.62
2023-03-06T13:14:29.199Z,77.00
2023-03-06T13:17:16.629Z,79.73
2023-03-06T13:19:47.063Z,83.37
2023-03-06T13:22:15.315Z,84.93
2023-03-06T13:24:43.904Z,86.42
2023-03-06T13:27:12.183Z,88.45
2023-03-06T13:29:57.491Z,89.65
2023-03-06T13:32:29.853Z,89.47
2023-03-06T13:34:58.569Z,90.34
2023-03-06T13:37:39.277Z,90.77
2023-03-06T13:40:25.440Z,89.51
2023-03-06T13:43:03.451Z,89.81
2023-03-06T13:45:35.293Z,89.15
2023-03-06T13:48:24.887Z,89.23
2023-03-06T13:50:52.130Z,89.23
2023-03-06T13:53:38.307Z,88.23
2023-03-06T13:56:24.491Z,85.94
2023-03-06T13:58:58.638Z,88.58
2023-03-06T14:01:45.076Z,88.35
2023-03-06T14:04:32.902Z,88.17
2023-03-06T14:07:11.172Z,87.58
2023-03-06T14:09:39.531Z,87.33
2023-03-06T14:12:08.093Z,86.48
2023-03-06T14:14:43.791Z,85.06
2023-03-06T14:17:19.105Z,82.08
2023-03-06T14:19:46.558Z,81.03
2023-03-06T14:22:17.561Z,80.00
2023-03-06T14:24:52.077Z,81.12
2023-03-06T14:27:19.650Z,80.17
2023-03-06T14:29:48.641Z,79.46
2023-03-06T14:32:17.641Z,79.32
2023-03-06T14:34:46.645Z,79.03
2023-03-06T14:37:22.048Z,79.25
2023-03-06T14:39:49.939Z,78.94
2023-03-06T14:42:18.779Z,80.50
2023-03-06T14:44:46.095Z,80.73
2023-03-06T14:47:20.658Z,78.99
2023-03-06T14:49:47.936Z,78.21
2023-03-06T14:52:18.920Z,78.82
2023-03-06T14:54:47.527Z,79.20
2023-03-06T14:57:16.055Z,78.84
2023-03-06T14:59:46.571Z,77.52
2023-03-06T15:02:18.953Z,78.06
2023-03-06T15:04:47.912Z,76.23
2023-03-06T15:07:16.925Z,78.81
2023-03-06T15:09:45.679Z,77.75
2023-03-06T15:12:29.694Z,77.18
2023-03-06T15:14:59.613Z,76.96
2023-03-06T15:17:29.594Z,75.92
2023-03-06T15:19:57.901Z,76.47
2023-03-06T15:22:30.055Z,75.84
2023-03-06T15:25:10.734Z,76.22
2023-03-06T15:27:38.551Z,75.52
2023-03-06T15:30:21.635Z,76.83
2023-03-06T15:32:48.918Z,75.53
2023-03-06T15:35:37.360Z,75.24
2023-03-06T15:38:23.361Z,75.21
2023-03-06T15:40:55.527Z,75.24
2023-03-06T15:43:22.831Z,74.52
2023-03-06T15:45:51.720Z,74.63
2023-03-06T15:48:19.071Z,76.10
2023-03-06T15:50:46.380Z,75.64
2023-03-06T15:53:13.729Z,75.84
2023-03-06T15:55:41.019Z,75.73
2023-03-06T15:58:12.446Z,76.45
2023-03-06T16:00:40.857Z,77.77
2023-03-06T16:03:11.378Z,76.80
2023-03-06T16:05:39.037Z,77.11
2023-03-06T16:08:06.796Z,77.60
2023-03-06T16:10:36.804Z,81.25
2023-03-06T16:13:06.696Z,86.32
2023-03-06T16:15:37.112Z,89.44
2023-03-06T16:18:04.880Z,92.53
2023-03-06T16:20:33.649Z,92.48
2023-03-06T16:23:01.071Z,94.60
2023-03-06T16:25:28.624Z,96.72
2023-03-06T16:27:58.814Z,97.20
2023-03-06T16:30:27.565Z,96.76
2023-03-06T16:32:54.860Z,97.96
2023-03-06T16:35:22.190Z,98.29
2023-03-06T16:37:51.080Z,98.23
2023-03-06T16:40:20.212Z,98.01
2023-03-06T16:42:48.079Z,97.15
2023-03-06T16:45:15.769Z,98.08
2023-03-06T16:47:43.251Z,97.50
2023-03-06T16:50:20.458Z,97.47
2023-03-06T16:52:47.751Z,97.69
2023-03-06T16:55:16.444Z,97.44
2023-03-06T16:57:43.748Z,97.44
2023-03-06T17:00:12.167Z,96.39
2023-03-06T17:02:39.808Z,96.32
2023-03-06T17:05:08.252Z,96.28
2023-03-06T17:07:35.978Z,96.57
2023-03-06T17:10:03.340Z,96.24
2023-03-06T17:12:31.961Z,95.84
2023-03-06T17:14:59.218Z,95.23
2023-03-06T17:17:26.899Z,95.21
2023-03-06T17:19:54.224Z,95.34
2023-03-06T17:22:21.759Z,94.56
2023-03-06T17:24:49.936Z,94.13
2023-03-06T17:27:17.294Z,93.59
2023-03-06T17:29:46.061Z,93.47
2023-03-06T17:32:13.823Z,93.45
2023-03-06T17:34:44.328Z,92.98
2023-03-06T17:37:11.645Z,92.32
2023-03-06T17:39:39.482Z,92.45
2023-03-06T17:42:07.253Z,92.83
2023-03-06T17:44:34.591Z,92.87
2023-03-06T17:47:03.770Z,93.52
2023-03-06T17:49:31.052Z,92.94
2023-03-06T17:51:59.732Z,92.28
2023-03-06T17:54:29.141Z,92.58
2023-03-06T17:56:56.472Z,92.23
2023-03-06T17:59:24.268Z,92.07
2023-03-06T18:01:51.594Z,92.95
2023-03-06T18:04:20.222Z,92.83
2023-03-06T18:06:47.530Z,93.09
2023-03-06T18:09:14.848Z,93.12
2023-03-06T18:11:42.354Z,92.33
2023-03-06T18:14:10.202Z,92.79
2023-03-06T18:16:37.522Z,92.59
2023-03-06T18:19:04.789Z,92.93
2023-03-06T18:21:33.422Z,92.64
2023-03-06T18:24:00.707Z,93.16
2023-03-06T18:26:28.779Z,92.94
2023-03-06T18:28:57.113Z,93.39
2023-03-06T18:31:25.712Z,91.69
2023-03-06T18:33:54.038Z,91.81
2023-03-06T18:36:22.727Z,90.97
2023-03-06T18:38:51.540Z,92.07
2023-03-06T18:41:19.312Z,90.88
2023-03-06T18:43:46.652Z,91.35
2023-03-06T18:46:13.892Z,90.89
2023-03-06T18:48:41.150Z,91.57
2023-03-06T18:51:09.148Z,91.35
2023-03-06T18:53:36.932Z,92.09
2023-03-06T18:56:05.793Z,91.40
2023-03-06T18:58:33.218Z,92.01
2023-03-06T19:01:02.104Z,91.91
2023-03-06T19:03:29.433Z,91.60
2023-03-06T19:05:56.748Z,91.85
2023-03-06T19:08:24.827Z,92.42
2023-03-06T19:10:52.078Z,91.57
2023-03-06T19:13:20.643Z,91.76
2023-03-06T19:15:51.375Z,92.19
2023-03-06T19:18:19.248Z,92.66
2023-03-06T19:20:46.897Z,92.28
2023-03-06T19:23:14.309Z,92.76
2023-03-06T19:25:42.807Z,92.95
2023-03-06T19:28:10.813Z,92.23
2023-03-06T19:30:41.645Z,91.26
2023-03-06T19:33:10.831Z,91.71
2023-03-06T19:35:38.160Z,91.60
2023-03-06T19:38:05.962Z,90.39
2023-03-06T19:40:34.041Z,90.53
2023-03-06T19:43:01.293Z,90.88
2023-03-06T19:45:28.568Z,91.41
2023-03-06T19:48:00.703Z,91.12
2023-03-06T19:50:29.511Z,91.38
2023-03-06T19:52:57.277Z,91.07
2023-03-06T19:55:26.327Z,91.40
2023-03-06T19:57:54.432Z,91.23
2023-03-06T20:00:22.062Z,91.77
2023-03-06T20:02:49.469Z,91.76
2023-03-06T20:05:18.234Z,92.21
2023-03-06T20:07:45.509Z,92.43
2023-03-06T20:10:12.912Z,93.86
2023-03-06T20:12:40.345Z,93.21
2023-03-06T20:15:09.250Z,92.33
2023-03-06T20:17:38.321Z,91.99
2023-03-06T20:20:07.375Z,91.81
2023-03-06T20:22:37.281Z,91.61
2023-03-06T20:25:08.319Z,91.81
2023-03-06T20:27:38.142Z,91.66
2023-03-06T20:30:08.017Z,92.05
2023-03-06T20:32:35.480Z,91.75
2023-03-06T20:35:03.472Z,92.51
2023-03-06T20:37:30.897Z,92.19
2023-03-06T20:40:00.453Z,92.66
2023-03-06T20:42:27.831Z,92.39
2023-03-06T20:44:55.797Z,92.64
2023-03-06T20:47:23.165Z,92.19
2023-03-06T20:49:50.428Z,92.67
2023-03-06T20:52:17.722Z,93.13
2023-03-06T20:54:45.784Z,93.74
2023-03-06T20:57:14.473Z,93.56
2023-03-06T20:59:43.664Z,93.78
2023-03-06T21:02:11.889Z,93.81
2023-03-06T21:04:40.907Z,93.52
2023-03-06T21:07:08.252Z,93.12
2023-03-06T21:09:37.648Z,92.48
2023-03-06T21:12:05.215Z,91.81
2023-03-06T21:14:33.900Z,91.56
2023-03-06T21:17:02.249Z,90.94
2023-03-06T21:19:32.574Z,90.77
2023-03-06T21:21:59.829Z,91.00
2023-03-06T21:24:27.111Z,90.51
2023-03-06T21:26:54.421Z,90.78
2023-03-06T21:29:21.699Z,90.30
2023-03-06T21:31:50.366Z,90.38
2023-03-06T21:34:17.714Z,90.17
2023-03-06T21:36:45.562Z,90.49
2023-03-06T21:39:14.266Z,89.84
2023-03-06T21:41:42.231Z,90.24
2023-03-06T21:44:09.565Z,90.09
2023-03-06T21:46:37.145Z,89.72
2023-03-06T21:49:05.923Z,89.88
2023-03-06T21:51:33.499Z,89.60
2023-03-06T21:54:02.210Z,89.43
2023-03-06T21:56:30.418Z,89.39
2023-03-06T21:58:58.519Z,89.65
2023-03-06T22:01:27.490Z,89.28
2023-03-06T22:03:55.631Z,89.86
2023-03-06T22:06:25.699Z,90.87
2023-03-06T22:08:54.236Z,91.51
2023-03-06T22:11:22.521Z,91.77
2023-03-06T22:13:50.279Z,91.55
2023-03-06T22:16:18.155Z,90.76
2023-03-06T22:18:46.353Z,91.48
2023-03-06T22:21:14.873Z,92.02
2023-03-06T22:23:43.924Z,92.10
2023-03-06T22:26:12.556Z,92.21
2023-03-06T22:28:40.188Z,91.99
2023-03-06T22:31:08.050Z,92.22
2023-03-06T22:33:35.385Z,91.82
2023-03-06T22:36:06.005Z,92.27
2023-03-06T22:38:33.439Z,92.72
2023-03-06T22:41:02.318Z,92.94
2023-03-06T22:43:29.622Z,92.91
2023-03-06T22:46:01.152Z,92.46
2023-03-06T22:48:28.524Z,91.76
2023-03-06T22:50:55.792Z,91.57
2023-03-06T22:53:23.052Z,91.59
2023-03-06T22:55:50.339Z,91.21
2023-03-06T22:58:18.920Z,91.02
2023-03-06T23:00:46.188Z,91.37
2023-03-06T23:03:13.471Z,91.40
2023-03-06T23:05:41.150Z,91.56
2023-03-06T23:08:08.418Z,91.55
2023-03-06T23:10:37.390Z,91.50
2023-03-06T23:13:04.688Z,91.72
2023-03-06T23:15:33.409Z,91.08
2023-03-06T23:18:01.063Z,90.95
2023-03-06T23:20:28.359Z,90.85
2023-03-06T23:22:55.669Z,90.07
2023-03-06T23:25:23.020Z,90.13
2023-03-06T23:27:50.328Z,89.65
2023-03-06T23:30:17.772Z,89.68
2023-03-06T23:32:46.358Z,89.09
2023-03-06T23:35:13.888Z,88.17
2023-03-06T23:37:41.193Z,88.07
2023-03-06T23:40:09.837Z,87.87
2023-03-06T23:42:37.176Z,88.29
2023-03-06T23:45:05.142Z,87.51
2023-03-06T23:47:32.892Z,87.99
2023-03-06T23:50:01.512Z,87.85
2023-03-06T23:52:28.792Z,87.04
2023-03-06T23:54:56.059Z,87.72
2023-03-06T23:57:23.310Z,87.76
2023-03-06T23:59:50.599Z,87.71
